Time;durP1;ratioP1;P1;durP2;ratioP2;P2;SDS_P1;SDS_P2;PMS_P1;PMS_P2;Temp;Humidity;BMP_temperature;BMP_pressure;BME280_temperature;BME280_humidity;BME280_pressure;Samples;Min_cycle;Max_cycle;Signal;HPM_P1;HPM_P2
2023/10/27 00:00:15;;;;;;;10.30;9.60;;;12.90;99.90;;;;;;10479670;28;20611;-80
2023/10/27 00:05:39;;;;;;;10.73;9.70;;;12.90;99.90;;;;;;10489872;28;20227;-79
2023/10/27 00:11:05;;;;;;;10.53;9.67;;;12.90;99.90;;;;;;10494367;28;20634;-79
2023/10/27 00:16:27;;;;;;;10.07;9.37;;;12.80;99.90;;;;;;10498956;28;20224;-80
2023/10/27 00:21:50;;;;;;;10.73;9.83;;;12.80;99.90;;;;;;10491187;28;20217;-79
2023/10/27 00:27:12;;;;;;;10.83;10.03;;;12.70;99.90;;;;;;10500336;28;20224;-80
2023/10/27 00:32:35;;;;;;;10.70;9.90;;;12.60;99.90;;;;;;10484539;28;20205;-79
2023/10/27 00:38:00;;;;;;;11.50;10.70;;;12.50;99.90;;;;;;10484510;28;20239;-79
2023/10/27 00:43:22;;;;;;;11.10;10.40;;;12.60;99.90;;;;;;10500032;28;20229;-79
2023/10/27 00:48:44;;;;;;;10.57;9.87;;;12.50;99.90;;;;;;10486725;28;20579;-79
2023/10/27 00:54:09;;;;;;;10.90;10.20;;;12.50;99.90;;;;;;10467295;28;20244;-79
2023/10/27 00:59:34;;;;;;;10.50;9.80;;;12.50;99.90;;;;;;10475557;28;20201;-79
2023/10/27 01:04:56;;;;;;;10.90;10.10;;;12.50;99.90;;;;;;10488359;28;20236;-79
2023/10/27 01:10:20;;;;;;;11.00;10.10;;;12.50;99.90;;;;;;10476300;28;20572;-79
2023/10/27 01:15:43;;;;;;;10.80;10.10;;;12.50;99.90;;;;;;10478092;28;20220;-80
2023/10/27 01:21:05;;;;;;;10.40;9.80;;;12.40;99.90;;;;;;10476711;28;20221;-79
2023/10/27 01:26:29;;;;;;;10.37;9.67;;;12.40;99.90;;;;;;10493523;28;20216;-80
2023/10/27 01:31:51;;;;;;;9.80;9.30;;;12.40;99.90;;;;;;10490754;28;20197;-79
2023/10/27 01:37:13;;;;;;;10.33;9.73;;;12.40;99.90;;;;;;10484894;28;20229;-79
2023/10/27 01:42:37;;;;;;;9.90;9.10;;;12.30;99.90;;;;;;10448937;28;20298;-79
2023/10/27 01:47:59;;;;;;;10.13;9.13;;;12.30;99.90;;;;;;10498412;28;20665;-79
2023/10/27 01:53:21;;;;;;;9.37;8.47;;;12.30;99.90;;;;;;10490408;28;20217;-79
2023/10/27 01:58:45;;;;;;;9.23;8.43;;;12.30;99.90;;;;;;10481920;28;20662;-79
2023/10/27 02:04:07;;;;;;;8.97;8.27;;;12.40;99.90;;;;;;10475966;28;20240;-80
2023/10/27 02:09:30;;;;;;;8.83;8.17;;;12.40;99.90;;;;;;10492463;28;20201;-80
2023/10/27 02:14:53;;;;;;;7.70;7.10;;;12.40;99.90;;;;;;10471211;28;20213;-80
2023/10/27 02:20:16;;;;;;;8.03;7.53;;;12.40;99.90;;;;;;10486418;28;20221;-80
2023/10/27 02:25:38;;;;;;;8.30;7.70;;;12.50;99.90;;;;;;10494145;28;20225;-79
2023/10/27 02:31:01;;;;;;;7.73;7.23;;;12.50;99.90;;;;;;10479105;28;20595;-80
2023/10/27 02:36:24;;;;;;;8.60;7.90;;;12.50;99.90;;;;;;10493122;28;20240;-80
2023/10/27 02:41:46;;;;;;;8.33;7.33;;;12.50;99.90;;;;;;10496454;28;20689;-80
2023/10/27 02:47:10;;;;;;;8.40;7.80;;;12.50;99.90;;;;;;10491152;28;21078;-80
2023/10/27 02:52:32;;;;;;;8.50;8.00;;;12.50;99.90;;;;;;10489667;28;20190;-80
2023/10/27 02:57:55;;;;;;;8.97;8.40;;;12.50;99.90;;;;;;10472073;28;20249;-80
2023/10/27 03:03:19;;;;;;;8.30;7.63;;;12.50;99.90;;;;;;10491628;28;20236;-80
2023/10/27 03:08:42;;;;;;;7.77;7.40;;;12.50;99.90;;;;;;10489926;28;20678;-80
2023/10/27 03:14:04;;;;;;;8.30;7.50;;;12.50;99.90;;;;;;10453350;28;20716;-80
2023/10/27 03:19:28;;;;;;;7.87;7.47;;;12.50;99.90;;;;;;10463772;28;20200;-80
2023/10/27 03:24:50;;;;;;;9.33;8.40;;;12.50;99.90;;;;;;10437502;28;20226;-80
2023/10/27 03:30:13;;;;;;;8.63;8.13;;;12.50;99.90;;;;;;10465271;28;20202;-80
2023/10/27 03:35:42;;;;;;;7.73;7.33;;;12.50;99.90;;;;;;10489741;28;20616;-79
2023/10/27 03:41:04;;;;;;;8.57;7.73;;;12.50;99.90;;;;;;10474721;28;20231;-79
2023/10/27 03:46:26;;;;;;;8.13;7.73;;;12.50;99.90;;;;;;10492180;28;20353;-80
2023/10/27 03:51:50;;;;;;;7.23;6.90;;;12.50;99.90;;;;;;10468864;28;20209;-80
2023/10/27 03:57:12;;;;;;;8.07;7.57;;;12.50;99.90;;;;;;10480359;28;20901;-80
2023/10/27 04:02:34;;;;;;;7.97;7.47;;;12.50;99.90;;;;;;10500270;28;20224;-80
2023/10/27 04:07:58;;;;;;;7.90;7.50;;;12.50;99.90;;;;;;10514783;28;20274;-77
2023/10/27 04:13:20;;;;;;;8.40;8.03;;;12.50;99.90;;;;;;10468446;28;20213;-78
2023/10/27 04:18:42;;;;;;;6.80;6.40;;;12.60;99.90;;;;;;10502623;28;20193;-78
2023/10/27 04:24:06;;;;;;;7.17;6.80;;;12.60;99.90;;;;;;10465886;28;20586;-79
2023/10/27 04:29:29;;;;;;;7.40;6.90;;;12.60;99.90;;;;;;10499019;28;20205;-78
2023/10/27 04:34:51;;;;;;;7.33;6.93;;;12.60;99.90;;;;;;10479842;28;20691;-79
2023/10/27 04:40:15;;;;;;;7.40;6.70;;;12.60;99.90;;;;;;10488710;28;20201;-79
2023/10/27 04:45:37;;;;;;;6.03;5.73;;;12.60;99.90;;;;;;10470934;28;20224;-79
2023/10/27 04:51:03;;;;;;;6.10;5.90;;;12.60;99.90;;;;;;10475528;28;20734;-78
2023/10/27 04:56:26;;;;;;;6.13;5.83;;;12.60;99.90;;;;;;10483400;28;20240;-79
2023/10/27 05:01:48;;;;;;;6.27;5.87;;;12.60;99.90;;;;;;10482206;28;20216;-78
2023/10/27 05:07:11;;;;;;;8.20;7.40;;;12.60;99.90;;;;;;10499849;28;20241;-79
2023/10/27 05:12:36;;;;;;;10.60;7.33;;;12.60;99.90;;;;;;10491925;28;20229;-79
2023/10/27 05:18:04;;;;;;;14.10;11.40;;;12.70;99.90;;;;;;10500209;28;20205;-79
2023/10/27 05:23:26;;;;;;;7.57;6.97;;;12.70;99.90;;;;;;10467249;28;20618;-80
2023/10/27 05:28:50;;;;;;;8.27;7.40;;;12.70;99.90;;;;;;10484186;28;20216;-79
2023/10/27 05:34:12;;;;;;;10.53;8.33;;;12.70;99.90;;;;;;10487885;28;20224;-79
2023/10/27 05:39:35;;;;;;;7.97;7.27;;;12.70;99.90;;;;;;10486406;28;20211;-80
2023/10/27 05:44:58;;;;;;;7.20;6.70;;;12.70;99.90;;;;;;10460460;28;20352;-79
2023/10/27 05:50:20;;;;;;;8.47;7.70;;;12.70;99.90;;;;;;10494647;28;20204;-79
2023/10/27 05:55:44;;;;;;;7.33;6.93;;;12.60;99.90;;;;;;10464136;28;20224;-79
2023/10/27 06:01:07;;;;;;;6.73;6.40;;;12.50;99.90;;;;;;10484423;28;20237;-79
2023/10/27 06:06:30;;;;;;;9.00;7.63;;;12.40;99.90;;;;;;10480617;28;20255;-79
2023/10/27 06:11:53;;;;;;;7.77;7.30;;;12.40;99.90;;;;;;10478215;28;20199;-79
2023/10/27 06:17:17;;;;;;;7.90;7.40;;;12.30;99.90;;;;;;10466590;28;20209;-79
2023/10/27 06:22:41;;;;;;;8.67;8.27;;;12.20;99.90;;;;;;10476581;28;20221;-79
2023/10/27 06:28:03;;;;;;;6.80;6.37;;;12.20;99.90;;;;;;10474087;28;20193;-79
2023/10/27 06:33:27;;;;;;;7.70;7.27;;;12.10;99.90;;;;;;10481227;28;20236;-79
2023/10/27 06:38:49;;;;;;;9.20;8.50;;;12.20;99.90;;;;;;10488350;28;20195;-79
2023/10/27 06:44:12;;;;;;;7.30;7.00;;;12.20;99.90;;;;;;10468199;28;20232;-80
2023/10/27 06:49:35;;;;;;;7.03;6.80;;;12.20;99.90;;;;;;10487872;28;20205;-79
2023/10/27 06:54:58;;;;;;;7.10;6.77;;;12.20;99.90;;;;;;10462321;28;20228;-79
2023/10/27 07:00:20;;;;;;;7.00;6.70;;;12.30;99.90;;;;;;10470547;28;20200;-79
2023/10/27 07:05:44;;;;;;;5.70;5.40;;;12.40;99.90;;;;;;10493896;28;20231;-79
2023/10/27 07:11:06;;;;;;;5.03;4.73;;;12.40;99.90;;;;;;10489363;28;20242;-77
2023/10/27 07:16:28;;;;;;;5.20;5.00;;;12.40;99.90;;;;;;10463728;28;20217;-79
2023/10/27 07:21:52;;;;;;;4.60;4.40;;;12.40;99.90;;;;;;10487281;28;20520;-78
2023/10/27 07:27:14;;;;;;;4.30;4.20;;;12.50;99.90;;;;;;10494586;28;20324;-77
2023/10/27 07:32:36;;;;;;;4.03;3.83;;;12.60;99.90;;;;;;10457864;28;20194;-76
2023/10/27 07:38:00;;;;;;;4.20;4.00;;;12.70;99.90;;;;;;10487217;28;20207;-76
2023/10/27 07:43:22;;;;;;;4.23;4.13;;;12.90;99.90;;;;;;10489494;28;20224;-80
2023/10/27 07:48:45;;;;;;;3.60;3.50;;;13.00;99.90;;;;;;10484845;28;20201;-80
2023/10/27 07:54:08;;;;;;;3.20;3.10;;;13.00;99.90;;;;;;10489565;28;20217;-79
2023/10/27 07:59:30;;;;;;;3.60;3.30;;;13.10;99.90;;;;;;10500969;28;20582;-79
2023/10/27 08:04:53;;;;;;;2.80;2.70;;;13.10;99.90;;;;;;10501576;28;20678;-79
2023/10/27 08:10:17;;;;;;;2.97;2.87;;;13.20;99.90;;;;;;10483611;28;20208;-77
2023/10/27 08:15:39;;;;;;;3.47;3.27;;;13.30;99.90;;;;;;10490697;28;20205;-79
2023/10/27 08:21:01;;;;;;;2.50;2.23;;;13.30;99.90;;;;;;10494677;28;20515;-79
2023/10/27 08:26:25;;;;;;;2.20;2.10;;;13.40;99.90;;;;;;10468076;28;20229;-79
2023/10/27 08:31:47;;;;;;;2.50;2.40;;;13.40;99.90;;;;;;10481506;28;20199;-79
2023/10/27 08:37:09;;;;;;;2.90;2.73;;;13.50;99.90;;;;;;10485307;28;20225;-79
2023/10/27 08:42:33;;;;;;;2.80;2.70;;;13.60;99.90;;;;;;10477364;28;20214;-79
2023/10/27 08:47:55;;;;;;;3.00;2.90;;;13.60;99.90;;;;;;10496624;28;20268;-78
2023/10/27 08:53:18;;;;;;;2.60;2.50;;;13.70;99.90;;;;;;10496893;28;20194;-77
2023/10/27 08:58:48;;;;;;;2.43;2.23;;;13.60;99.90;;;;;;10483728;28;20209;-78
2023/10/27 09:04:11;;;;;;;2.50;2.40;;;13.50;99.90;;;;;;10496274;28;20240;-78
2023/10/27 09:09:33;;;;;;;2.80;2.70;;;13.50;99.90;;;;;;10476337;28;20356;-79
2023/10/27 09:15:04;;;;;;;2.67;2.47;;;13.30;99.90;;;;;;10478409;28;20233;-80
2023/10/27 09:20:27;;;;;;;3.90;3.70;;;13.20;99.90;;;;;;10474559;28;20630;-77
2023/10/27 09:25:49;;;;;;;3.50;3.30;;;13.10;99.90;;;;;;10479651;28;20227;-79
2023/10/27 09:31:13;;;;;;;2.87;2.77;;;13.10;99.90;;;;;;10474929;28;20225;-79
2023/10/27 09:36:35;;;;;;;2.90;2.80;;;13.20;99.90;;;;;;10478428;28;20232;-79
2023/10/27 09:42:03;;;;;;;3.60;3.40;;;13.30;99.90;;;;;;10468754;28;20221;-79
2023/10/27 09:47:34;;;;;;;3.40;3.20;;;13.20;99.90;;;;;;10463748;28;20221;-78
2023/10/27 09:52:58;;;;;;;3.23;3.13;;;13.20;99.90;;;;;;10489164;28;20613;-79
2023/10/27 09:58:22;;;;;;;2.70;2.60;;;13.30;99.90;;;;;;10469358;28;20237;-79
2023/10/27 10:03:46;;;;;;;4.50;4.23;;;13.30;99.90;;;;;;10465799;28;20618;-78
2023/10/27 10:09:10;;;;;;;4.70;4.40;;;13.30;99.90;;;;;;10479936;28;20577;-78
2023/10/27 10:14:49;;;;;;;2.40;2.20;;;13.30;99.90;;;;;;10457138;28;20311;-78
2023/10/27 10:20:13;;;;;;;5.57;5.23;;;13.30;99.90;;;;;;10489012;28;20206;-78
2023/10/27 10:25:36;;;;;;;5.37;5.07;;;13.20;99.90;;;;;;10482540;28;20221;-78
2023/10/27 10:31:25;;;;;;;5.63;5.43;;;13.30;99.90;;;;;;10466747;28;20681;-78
2023/10/27 10:36:48;;;;;;;7.00;6.60;;;13.40;99.90;;;;;;10467447;28;20224;-77
2023/10/27 10:42:10;;;;;;;5.77;5.37;;;13.50;99.90;;;;;;10481879;28;20216;-78
2023/10/27 10:47:33;;;;;;;3.63;3.43;;;13.40;99.90;;;;;;10480568;28;20221;-78
2023/10/27 10:53:12;;;;;;;5.33;5.00;;;13.30;99.90;;;;;;10478751;28;20197;-77
2023/10/27 10:58:36;;;;;;;4.00;3.60;;;13.20;99.90;;;;;;10488373;28;20234;-78
2023/10/27 11:03:59;;;;;;;4.97;4.57;;;13.10;99.90;;;;;;10491703;28;20729;-78
2023/10/27 11:09:26;;;;;;;5.97;4.57;;;13.10;99.90;;;;;;10491388;28;20228;-78
2023/10/27 11:14:48;;;;;;;7.20;6.70;;;13.10;99.90;;;;;;10494719;28;20239;-78
2023/10/27 11:20:11;;;;;;;3.90;3.60;;;13.10;99.90;;;;;;10455819;28;20580;-78
2023/10/27 11:25:34;;;;;;;3.30;3.00;;;13.20;99.90;;;;;;10468372;28;20228;-77
2023/10/27 11:31:01;;;;;;;4.10;3.07;;;13.20;99.90;;;;;;10457460;28;20201;-78
2023/10/27 11:36:23;;;;;;;2.93;2.70;;;13.30;99.90;;;;;;10488023;28;20218;-78
2023/10/27 11:41:49;;;;;;;2.87;2.57;;;13.30;99.90;;;;;;10463393;28;20193;-78
2023/10/27 11:47:11;;;;;;;3.70;2.83;;;13.40;99.90;;;;;;10475689;28;20244;-78
2023/10/27 11:52:34;;;;;;;3.23;2.33;;;13.50;99.90;;;;;;10468730;28;20192;-78
2023/10/27 11:57:57;;;;;;;2.63;2.43;;;13.70;99.90;;;;;;10475797;28;20698;-78
2023/10/27 12:03:19;;;;;;;2.50;2.30;;;13.90;99.90;;;;;;10484426;28;20241;-78
2023/10/27 12:08:42;;;;;;;3.33;1.80;;;14.00;99.90;;;;;;10486042;28;20205;-78
2023/10/27 12:14:05;;;;;;;4.50;2.20;;;14.30;99.90;;;;;;10479915;28;20212;-78
2023/10/27 12:19:28;;;;;;;2.80;2.00;;;14.40;99.90;;;;;;10491436;28;20205;-78
2023/10/27 12:24:50;;;;;;;2.13;2.03;;;14.40;99.90;;;;;;10483305;28;20225;-78
2023/10/27 12:30:16;;;;;;;3.83;1.60;;;14.30;99.90;;;;;;10470650;28;20687;-78
2023/10/27 12:35:38;;;;;;;1.70;1.30;;;14.30;99.90;;;;;;10492327;28;20210;-77
2023/10/27 12:41:00;;;;;;;1.73;1.50;;;14.30;99.90;;;;;;10480278;28;20197;-78
2023/10/27 12:46:24;;;;;;;1.57;1.47;;;14.30;99.90;;;;;;10485865;28;20232;-78
2023/10/27 12:51:47;;;;;;;3.50;1.70;;;14.30;99.90;;;;;;10464238;28;20205;-78
2023/10/27 12:57:09;;;;;;;2.43;1.50;;;14.30;99.90;;;;;;10483795;28;20221;-78
2023/10/27 13:02:32;;;;;;;2.10;1.90;;;14.30;99.90;;;;;;10464801;28;20290;-78
2023/10/27 13:07:56;;;;;;;1.53;1.40;;;14.30;99.90;;;;;;10492778;28;20221;-78
2023/10/27 13:13:18;;;;;;;1.70;1.50;;;14.30;99.90;;;;;;10470093;28;20205;-79
2023/10/27 13:18:41;;;;;;;4.40;1.80;;;14.30;99.90;;;;;;10487483;28;20193;-78
2023/10/27 13:24:04;;;;;;;2.27;1.60;;;14.40;99.90;;;;;;10460575;28;20222;-78
2023/10/27 13:29:26;;;;;;;4.50;1.53;;;14.40;99.90;;;;;;10481845;28;20564;-78
2023/10/27 13:34:50;;;;;;;2.80;1.30;;;14.40;99.90;;;;;;10477226;28;20224;-78
2023/10/27 13:40:16;;;;;;;1.43;1.23;;;14.50;99.90;;;;;;10474207;28;20193;-78
2023/10/27 13:45:38;;;;;;;1.63;1.20;;;14.40;99.90;;;;;;10466150;28;20228;-78
2023/10/27 13:51:09;;;;;;;1.80;1.70;;;14.40;99.90;;;;;;10484506;28;20618;-78
2023/10/27 13:56:31;;;;;;;2.33;1.80;;;14.40;99.90;;;;;;10490652;28;20619;-78
2023/10/27 14:01:53;;;;;;;1.33;1.17;;;14.30;99.90;;;;;;10464775;28;20228;-79
2023/10/27 14:07:17;;;;;;;1.20;1.10;;;14.30;99.90;;;;;;10470644;28;20801;-78
2023/10/27 14:12:39;;;;;;;1.60;1.50;;;14.40;99.90;;;;;;10498846;28;20212;-78
2023/10/27 14:18:02;;;;;;;1.30;1.20;;;14.50;99.90;;;;;;10490059;28;20201;-78
2023/10/27 14:23:26;;;;;;;2.07;1.30;;;14.50;99.90;;;;;;10459873;28;20247;-79
2023/10/27 14:28:49;;;;;;;2.43;2.23;;;14.50;99.90;;;;;;10493967;28;20552;-78
2023/10/27 14:34:12;;;;;;;1.70;1.60;;;14.50;99.90;;;;;;10488283;28;20228;-79
2023/10/27 14:39:41;;;;;;;2.20;1.50;;;14.40;99.90;;;;;;10459679;28;20196;-78
2023/10/27 14:45:04;;;;;;;1.30;1.30;;;14.30;99.90;;;;;;10491643;28;20220;-79
2023/10/27 14:50:27;;;;;;;1.27;1.27;;;14.30;99.90;;;;;;10470749;28;20783;-79
2023/10/27 14:55:57;;;;;;;1.93;1.43;;;14.20;99.90;;;;;;10478797;28;20611;-78
2023/10/27 15:01:19;;;;;;;3.30;1.50;;;14.20;99.90;;;;;;10475422;28;20574;-78
2023/10/27 15:06:41;;;;;;;1.43;1.33;;;14.20;99.90;;;;;;10471635;28;20532;-78
2023/10/27 15:12:05;;;;;;;2.03;1.73;;;14.20;99.90;;;;;;10478263;28;20262;-78
2023/10/27 15:17:27;;;;;;;1.60;1.50;;;14.30;99.90;;;;;;10495869;28;20232;-78
2023/10/27 15:22:50;;;;;;;1.80;1.70;;;14.20;99.90;;;;;;10464463;28;20221;-79
2023/10/27 15:28:13;;;;;;;1.43;1.43;;;14.20;99.90;;;;;;10457301;28;20218;-78
2023/10/27 15:33:38;;;;;;;1.40;1.40;;;14.10;99.90;;;;;;10470302;28;20244;-77
2023/10/27 15:39:00;;;;;;;2.63;1.60;;;14.10;99.90;;;;;;10451055;28;20224;-78
2023/10/27 15:44:23;;;;;;;1.40;1.30;;;14.00;99.90;;;;;;10464224;28;20739;-78
2023/10/27 15:49:47;;;;;;;1.77;1.67;;;14.00;99.90;;;;;;10504424;28;20204;-78
2023/10/27 15:55:09;;;;;;;1.93;1.83;;;13.90;99.90;;;;;;10493147;28;20213;-78
2023/10/27 16:00:34;;;;;;;1.70;1.70;;;13.90;99.90;;;;;;10454300;28;20666;-78
2023/10/27 16:05:56;;;;;;;1.73;1.63;;;13.80;99.90;;;;;;10494566;28;20707;-77
2023/10/27 16:11:19;;;;;;;2.63;2.53;;;13.80;99.90;;;;;;10473063;28;20553;-78
2023/10/27 16:16:45;;;;;;;2.60;2.40;;;13.80;99.90;;;;;;10504717;28;20225;-79
2023/10/27 16:22:07;;;;;;;3.17;2.30;;;13.70;99.90;;;;;;10568963;22;20576;-77
2023/10/27 16:27:30;;;;;;;2.73;2.63;;;13.70;99.90;;;;;;10545314;28;20185;-79
2023/10/27 16:32:53;;;;;;;4.73;2.53;;;13.50;99.90;;;;;;10527011;28;20213;-76
2023/10/27 16:38:15;;;;;;;2.57;2.37;;;13.50;99.90;;;;;;10507409;28;20201;-76
2023/10/27 16:43:40;;;;;;;3.03;2.83;;;13.40;99.90;;;;;;10511646;28;20224;-76
2023/10/27 16:49:04;;;;;;;3.10;2.90;;;13.30;99.90;;;;;;10531235;28;20220;-76
2023/10/27 16:54:26;;;;;;;2.70;2.27;;;13.30;99.90;;;;;;10526948;28;20192;-78
2023/10/27 16:59:49;;;;;;;3.73;3.53;;;13.20;99.90;;;;;;10517417;28;20683;-77
2023/10/27 17:05:15;;;;;;;3.10;2.90;;;13.10;99.90;;;;;;10522559;28;20231;-76
2023/10/27 17:10:37;;;;;;;3.23;2.93;;;13.00;99.90;;;;;;10512653;28;20217;-77
2023/10/27 17:16:04;;;;;;;3.40;3.20;;;13.00;99.90;;;;;;10510655;28;20197;-76
2023/10/27 17:21:28;;;;;;;3.93;3.63;;;12.90;99.90;;;;;;10514204;28;20224;-76
2023/10/27 17:26:51;;;;;;;4.60;3.40;;;12.90;99.90;;;;;;10512815;28;20575;-76
2023/10/27 17:32:13;;;;;;;2.90;2.70;;;12.90;99.90;;;;;;10513571;28;20596;-76
2023/10/27 17:37:36;;;;;;;4.10;3.00;;;12.80;99.90;;;;;;10500266;28;20197;-77
2023/10/27 17:42:59;;;;;;;4.63;4.13;;;12.90;99.90;;;;;;10529242;28;20685;-77
2023/10/27 17:48:21;;;;;;;3.77;3.07;;;12.90;99.90;;;;;;10534967;28;20196;-77
2023/10/27 17:53:44;;;;;;;5.00;4.60;;;12.90;99.90;;;;;;10517360;28;20221;-77
2023/10/27 17:59:09;;;;;;;4.90;4.50;;;12.90;99.90;;;;;;10514618;28;20232;-77
2023/10/27 18:04:31;;;;;;;4.23;3.93;;;12.90;99.90;;;;;;10532162;28;20285;-77
2023/10/27 18:09:55;;;;;;;4.00;3.70;;;12.80;99.90;;;;;;10508511;28;20221;-77
2023/10/27 18:15:18;;;;;;;3.20;3.00;;;12.80;99.90;;;;;;10504064;28;20198;-77
2023/10/27 18:20:40;;;;;;;4.20;3.80;;;12.70;99.90;;;;;;10518832;28;20299;-77
2023/10/27 18:26:11;;;;;;;3.27;3.07;;;12.70;99.90;;;;;;10503622;28;20763;-77
2023/10/27 18:31:34;;;;;;;3.67;2.73;;;12.70;99.90;;;;;;10529696;28;20710;-77
2023/10/27 18:36:57;;;;;;;2.80;2.63;;;12.70;99.90;;;;;;10528405;28;20204;-78
2023/10/27 18:42:20;;;;;;;2.80;2.60;;;12.70;99.90;;;;;;10535873;28;20211;-77
2023/10/27 18:47:44;;;;;;;3.97;3.00;;;12.70;99.90;;;;;;10490512;28;20232;-77
2023/10/27 18:53:06;;;;;;;2.47;2.33;;;12.80;99.90;;;;;;10496600;28;20215;-77
2023/10/27 18:58:29;;;;;;;3.67;3.37;;;12.80;99.90;;;;;;10530751;28;20571;-77
2023/10/27 19:03:52;;;;;;;4.80;4.23;;;12.80;99.90;;;;;;10507253;28;20235;-78
2023/10/27 19:09:14;;;;;;;4.53;3.43;;;12.90;99.90;;;;;;10526375;28;20227;-77
2023/10/27 19:14:38;;;;;;;4.63;4.20;;;12.90;99.90;;;;;;10508127;28;20203;-77
2023/10/27 19:20:00;;;;;;;4.10;3.50;;;12.90;99.90;;;;;;10522358;28;20799;-78
2023/10/27 19:25:22;;;;;;;3.53;3.10;;;12.90;99.90;;;;;;10513155;28;20220;-77
2023/10/27 19:30:49;;;;;;;3.27;3.00;;;13.00;99.90;;;;;;10495366;28;20240;-77
2023/10/27 19:36:13;;;;;;;3.13;2.83;;;13.00;99.90;;;;;;10508059;28;20196;-78
2023/10/27 19:41:35;;;;;;;3.63;2.87;;;13.00;99.90;;;;;;10493229;28;20341;-77
2023/10/27 19:46:59;;;;;;;3.43;3.23;;;13.10;99.90;;;;;;10521342;28;20234;-78
2023/10/27 19:52:21;;;;;;;3.10;2.80;;;13.20;99.90;;;;;;10500794;28;20217;-76
2023/10/27 19:57:43;;;;;;;3.00;2.80;;;13.20;99.90;;;;;;10523713;28;20196;-77
2023/10/27 20:03:08;;;;;;;4.10;2.40;;;13.20;99.90;;;;;;10499007;28;20216;-77
2023/10/27 20:08:33;;;;;;;2.40;2.20;;;13.20;99.90;;;;;;10527241;28;20228;-77
2023/10/27 20:13:55;;;;;;;2.67;2.47;;;13.20;99.90;;;;;;10502145;28;20217;-76
2023/10/27 20:19:19;;;;;;;3.23;2.60;;;13.30;99.90;;;;;;10493110;28;20201;-77
2023/10/27 20:24:41;;;;;;;4.47;2.93;;;13.30;99.90;;;;;;10514419;28;20224;-76
2023/10/27 20:30:04;;;;;;;5.13;3.10;;;13.30;99.90;;;;;;10517233;28;20689;-75
2023/10/27 20:35:28;;;;;;;3.20;2.97;;;13.20;99.90;;;;;;10518316;28;20192;-79
2023/10/27 20:40:50;;;;;;;3.30;3.00;;;13.20;99.90;;;;;;10514409;28;20227;-76
2023/10/27 20:46:12;;;;;;;3.43;2.73;;;13.20;99.90;;;;;;10515877;28;20217;-77
2023/10/27 20:51:36;;;;;;;2.80;2.60;;;13.20;99.90;;;;;;10514741;28;20216;-76
2023/10/27 20:56:58;;;;;;;3.07;2.73;;;13.20;99.90;;;;;;10513863;28;20184;-76
2023/10/27 21:02:20;;;;;;;2.80;2.40;;;13.30;99.90;;;;;;10500934;28;20212;-77
2023/10/27 21:07:44;;;;;;;2.97;2.80;;;13.30;99.90;;;;;;10510090;28;20224;-76
2023/10/27 21:13:06;;;;;;;3.07;2.90;;;13.30;99.90;;;;;;10516364;28;20255;-77
2023/10/27 21:18:28;;;;;;;2.70;2.50;;;13.20;99.90;;;;;;10506540;28;20200;-76
2023/10/27 21:23:53;;;;;;;3.97;2.40;;;13.20;99.90;;;;;;10523128;28;20227;-78
2023/10/27 21:29:15;;;;;;;3.40;2.90;;;13.30;99.90;;;;;;10514151;28;20276;-76
2023/10/27 21:34:37;;;;;;;3.50;3.00;;;13.30;99.90;;;;;;10505327;28;20200;-76
2023/10/27 21:40:01;;;;;;;3.30;2.93;;;13.30;99.90;;;;;;10511813;28;20216;-77
2023/10/27 21:45:23;;;;;;;3.40;2.90;;;13.30;99.90;;;;;;10527499;28;20706;-76
2023/10/27 21:50:46;;;;;;;3.73;3.40;;;13.30;99.90;;;;;;10506496;28;20712;-78
2023/10/27 21:56:11;;;;;;;5.00;4.60;;;13.10;99.90;;;;;;10500259;28;20200;-76
2023/10/27 22:01:34;;;;;;;6.20;5.70;;;12.90;99.90;;;;;;10511397;28;20290;-76
2023/10/27 22:06:57;;;;;;;6.67;6.37;;;12.70;99.90;;;;;;10484995;28;20255;-76
2023/10/27 22:12:21;;;;;;;8.00;7.50;;;12.50;99.90;;;;;;10501561;28;20208;-77
2023/10/27 22:17:44;;;;;;;8.60;8.30;;;12.30;99.90;;;;;;10518497;28;20253;-78
2023/10/27 22:23:06;;;;;;;8.57;8.00;;;12.10;99.90;;;;;;10568099;22;20239;-78
2023/10/27 22:28:30;;;;;;;8.20;7.60;;;12.00;99.90;;;;;;10576020;28;20220;-78
2023/10/27 22:33:52;;;;;;;8.80;8.27;;;11.90;99.90;;;;;;10540829;28;20213;-78
2023/10/27 22:39:14;;;;;;;8.77;8.37;;;11.80;99.90;;;;;;10540491;28;20211;-77
2023/10/27 22:44:38;;;;;;;9.53;9.03;;;11.80;99.90;;;;;;10535751;28;20217;-78
2023/10/27 22:50:00;;;;;;;8.70;8.40;;;11.70;99.90;;;;;;10535355;28;20262;-79
2023/10/27 22:55:23;;;;;;;9.37;8.97;;;11.80;99.90;;;;;;10534569;28;20568;-80
2023/10/27 23:00:46;;;;;;;7.60;7.30;;;11.70;99.90;;;;;;10535376;28;20216;-80
2023/10/27 23:06:10;;;;;;;8.30;8.00;;;11.80;99.90;;;;;;10531408;28;20226;-79
2023/10/27 23:11:33;;;;;;;8.07;7.67;;;11.70;99.90;;;;;;10532682;28;20261;-80
2023/10/27 23:16:56;;;;;;;6.27;6.07;;;11.70;99.90;;;;;;10532741;28;20293;-80
2023/10/27 23:22:19;;;;;;;5.90;5.60;;;11.70;99.90;;;;;;10529034;28;20423;-80
2023/10/27 23:27:41;;;;;;;5.20;5.00;;;11.70;99.90;;;;;;10532746;28;20331;-80
2023/10/27 23:33:05;;;;;;;5.00;4.77;;;11.70;99.90;;;;;;10522286;28;20598;-80
2023/10/27 23:38:30;;;;;;;4.83;4.63;;;11.70;99.90;;;;;;10535704;28;20192;-80
2023/10/27 23:43:53;;;;;;;4.87;4.40;;;11.70;99.90;;;;;;10534171;28;20640;-80
2023/10/27 23:49:16;;;;;;;3.73;3.63;;;11.70;99.90;;;;;;10537042;28;20615;-80
2023/10/27 23:54:38;;;;;;;3.70;3.50;;;11.80;99.90;;;;;;10531445;28;20616;-80
